createdAt,value
2023-12-11T00:01:48.056Z,13.10
2023-12-11T00:04:52.745Z,12.25
2023-12-11T00:07:57.981Z,12.93
2023-12-11T00:11:04.060Z,12.18
2023-12-11T00:14:08.605Z,12.10
2023-12-11T00:17:12.342Z,12.85
2023-12-11T00:20:18.302Z,12.60
2023-12-11T00:23:25.638Z,12.02
2023-12-11T00:27:08.661Z,13.00
2023-12-11T00:30:13.469Z,13.52
2023-12-11T00:33:19.354Z,14.55
2023-12-11T00:36:22.771Z,13.40
2023-12-11T00:39:29.206Z,13.25
2023-12-11T00:42:33.027Z,12.00
2023-12-11T00:45:36.106Z,12.70
2023-12-11T00:48:44.821Z,13.20
2023-12-11T00:51:54.645Z,13.25
2023-12-11T00:54:58.365Z,13.05
2023-12-11T00:58:02.343Z,12.40
2023-12-11T01:01:06.407Z,11.98
2023-12-11T01:04:10.119Z,13.07
2023-12-11T01:07:13.539Z,11.65
2023-12-11T01:10:16.679Z,12.37
2023-12-11T01:13:24.107Z,11.80
2023-12-11T01:16:28.655Z,11.80
2023-12-11T01:19:32.827Z,10.75
2023-12-11T01:22:38.808Z,12.20
2023-12-11T01:33:40.564Z,11.02
2023-12-11T01:36:44.947Z,12.02
2023-12-11T01:39:48.329Z,10.88
2023-12-11T01:43:04.272Z,11.27
2023-12-11T01:46:19.719Z,11.57
2023-12-11T01:49:28.605Z,10.73
2023-12-11T01:53:04.675Z,11.20
2023-12-11T01:56:09.875Z,9.82
2023-12-11T01:59:15.022Z,10.35
2023-12-11T02:02:21.527Z,10.07
2023-12-11T02:05:25.570Z,9.07
2023-12-11T02:08:32.975Z,9.75
2023-12-11T02:11:36.754Z,10.15
2023-12-11T02:14:40.615Z,9.07
2023-12-11T02:17:44.485Z,9.40
2023-12-11T02:20:52.184Z,9.77
2023-12-11T02:24:03.334Z,9.30
2023-12-11T02:27:10.979Z,10.27
2023-12-11T02:30:15.090Z,11.00
2023-12-11T02:33:20.176Z,10.98
2023-12-11T02:36:24.853Z,10.70
2023-12-11T02:39:28.046Z,10.55
2023-12-11T02:42:34.669Z,10.55
2023-12-11T02:45:40.640Z,10.40
2023-12-11T02:48:43.955Z,10.10
2023-12-11T02:51:47.048Z,9.77
2023-12-11T02:54:57.918Z,10.68
2023-12-11T02:58:04.358Z,11.07
2023-12-11T03:01:08.060Z,11.70
2023-12-11T03:04:12.960Z,11.48
2023-12-11T03:07:21.695Z,10.75
2023-12-11T03:10:25.008Z,11.55
2023-12-11T03:13:29.070Z,11.07
2023-12-11T03:16:32.479Z,11.65
2023-12-11T03:19:36.181Z,10.90
2023-12-11T03:22:41.567Z,11.50
2023-12-11T03:25:45.100Z,11.30
2023-12-11T03:28:48.598Z,10.90
2023-12-11T03:31:53.907Z,12.02
2023-12-11T03:34:56.914Z,11.05
2023-12-11T03:38:03.643Z,11.85
2023-12-11T03:41:10.948Z,12.43
2023-12-11T03:44:15.275Z,11.80
2023-12-11T03:47:25.757Z,10.20
2023-12-11T03:50:33.014Z,10.45
2023-12-11T03:53:37.311Z,11.32
2023-12-11T03:57:15.986Z,11.45
2023-12-11T04:00:39.635Z,10.75
2023-12-11T04:03:50.258Z,11.10
2023-12-11T04:06:53.783Z,11.23
2023-12-11T04:09:57.875Z,11.32
2023-12-11T04:13:02.805Z,11.82
2023-12-11T04:16:12.193Z,11.48
2023-12-11T04:19:15.698Z,10.67
2023-12-11T04:22:22.291Z,11.60
2023-12-11T04:25:25.127Z,11.68
2023-12-11T04:28:29.455Z,12.13
2023-12-11T04:31:35.201Z,11.45
2023-12-11T04:34:39.350Z,11.32
2023-12-11T04:37:42.518Z,11.73
2023-12-11T04:40:53.500Z,11.82
2023-12-11T04:44:00.918Z,10.18
2023-12-11T04:47:07.164Z,11.63
2023-12-11T04:50:14.376Z,11.27
2023-12-11T04:53:22.080Z,12.30
2023-12-11T04:56:25.614Z,11.95
2023-12-11T04:59:29.387Z,12.70
2023-12-11T05:02:34.934Z,11.18
2023-12-11T05:05:42.654Z,10.95
2023-12-11T05:08:47.369Z,12.37
2023-12-11T05:11:53.036Z,11.38
2023-12-11T05:14:56.756Z,11.40
2023-12-11T05:18:00.962Z,11.63
2023-12-11T05:21:10.415Z,11.98
2023-12-11T05:24:19.958Z,11.80
2023-12-11T05:27:25.950Z,12.32
2023-12-11T05:30:30.341Z,13.73
2023-12-11T05:33:33.963Z,11.70
2023-12-11T05:36:37.831Z,12.55
2023-12-11T05:39:47.349Z,11.35
2023-12-11T05:43:02.068Z,11.10
2023-12-11T05:46:10.234Z,10.85
2023-12-11T05:52:16.317Z,11.27
2023-12-11T05:55:20.999Z,11.50
2023-12-11T05:58:24.691Z,11.80
2023-12-11T06:01:28.657Z,11.98
2023-12-11T06:04:38.211Z,11.48
2023-12-11T06:07:43.170Z,12.23
2023-12-11T06:10:46.866Z,11.90
2023-12-11T06:13:51.888Z,11.25
2023-12-11T06:16:59.876Z,11.53
2023-12-11T06:20:22.837Z,11.65
2023-12-11T06:23:29.543Z,11.73
2023-12-11T06:26:35.453Z,11.52
2023-12-11T06:29:40.255Z,10.73
2023-12-11T06:32:47.255Z,10.88
2023-12-11T06:35:50.932Z,11.02
2023-12-11T06:38:57.099Z,10.88
2023-12-11T06:42:22.463Z,10.77
2023-12-11T06:45:25.322Z,11.90
2023-12-11T06:48:32.894Z,11.82
2023-12-11T06:51:40.068Z,10.30
2023-12-11T06:55:15.625Z,10.43
2023-12-11T06:58:22.265Z,11.18
2023-12-11T07:01:32.254Z,11.45
2023-12-11T07:04:36.733Z,9.35
2023-12-11T07:07:41.357Z,10.43
2023-12-11T07:10:47.561Z,9.40
2023-12-11T07:14:24.974Z,9.95
2023-12-11T07:17:34.379Z,9.68
2023-12-11T07:20:43.618Z,10.35
2023-12-11T07:23:49.899Z,10.57
2023-12-11T07:27:25.640Z,10.70
2023-12-11T07:30:30.957Z,10.00
2023-12-11T07:33:34.905Z,10.77
2023-12-11T07:36:39.898Z,12.15
2023-12-11T07:40:04.156Z,12.63
2023-12-11T07:43:09.478Z,12.07
2023-12-11T07:46:23.233Z,12.23
2023-12-11T07:49:27.796Z,11.20
2023-12-11T07:52:32.083Z,10.75
2023-12-11T07:55:37.230Z,12.00
2023-12-11T07:58:44.017Z,11.90
2023-12-11T08:02:16.748Z,11.30
2023-12-11T08:05:46.332Z,10.88
2023-12-11T08:09:29.401Z,11.32
2023-12-11T08:13:04.755Z,11.73
2023-12-11T08:16:41.013Z,11.85
2023-12-11T08:20:13.255Z,10.98
2023-12-11T08:23:45.490Z,11.40
2023-12-11T08:27:20.501Z,11.43
2023-12-11T08:30:57.817Z,12.00
2023-12-11T08:34:38.800Z,11.43
2023-12-11T08:38:18.444Z,12.10
2023-12-11T08:41:52.491Z,11.55
2023-12-11T08:45:27.753Z,11.70
2023-12-11T08:48:57.056Z,12.15
2023-12-11T08:52:13.819Z,12.60
2023-12-11T08:55:34.176Z,11.80
2023-12-11T08:59:13.006Z,11.43
2023-12-11T09:02:55.462Z,11.85
2023-12-11T09:06:25.749Z,12.05
2023-12-11T09:09:59.160Z,11.32
2023-12-11T09:13:29.638Z,11.02
2023-12-11T09:16:57.407Z,12.30
2023-12-11T09:20:31.118Z,12.18
2023-12-11T09:23:47.394Z,12.13
2023-12-11T09:27:37.204Z,13.55
2023-12-11T09:31:00.859Z,14.23
2023-12-11T09:34:40.205Z,12.95
2023-12-11T09:37:47.885Z,12.02
2023-12-11T09:41:15.601Z,11.90
2023-12-11T09:44:49.154Z,11.43
2023-12-11T09:48:15.298Z,10.77
2023-12-11T09:51:47.108Z,11.50
2023-12-11T09:55:07.967Z,11.00
2023-12-11T09:58:50.906Z,11.75
2023-12-11T10:02:19.836Z,12.15
2023-12-11T10:06:18.122Z,11.38
2023-12-11T10:09:50.297Z,10.63
2023-12-11T10:12:56.330Z,11.88
2023-12-11T10:16:37.182Z,12.27
2023-12-11T10:20:20.177Z,12.07
2023-12-11T10:23:48.542Z,11.05
2023-12-11T10:27:47.081Z,11.25
2023-12-11T10:30:57.948Z,10.50
2023-12-11T10:34:06.912Z,11.60
2023-12-11T10:37:15.580Z,11.57
2023-12-11T10:40:22.115Z,11.20
2023-12-11T10:43:55.358Z,10.88
2023-12-11T10:47:04.429Z,10.35
2023-12-11T10:50:11.295Z,13.10
2023-12-11T10:53:17.189Z,11.67
2023-12-11T10:56:20.497Z,11.63
2023-12-11T10:59:25.711Z,12.60
2023-12-11T11:02:38.574Z,11.57
2023-12-11T11:05:42.782Z,16.02
2023-12-11T11:08:56.283Z,13.88
2023-12-11T11:12:57.539Z,11.75
2023-12-11T11:16:04.940Z,10.98
2023-12-11T11:22:27.356Z,10.70
2023-12-11T11:25:40.686Z,10.70
2023-12-11T11:28:52.279Z,10.98
2023-12-11T11:32:19.269Z,12.05
2023-12-11T11:35:51.684Z,11.25
2023-12-11T11:38:58.296Z,12.57
2023-12-11T11:42:09.100Z,11.65
2023-12-11T11:45:32.481Z,12.70
2023-12-11T11:48:43.242Z,12.77
2023-12-11T11:51:48.243Z,11.52
2023-12-11T11:54:53.383Z,11.25
2023-12-11T11:58:15.700Z,9.98
2023-12-11T12:01:19.137Z,11.15
2023-12-11T12:04:30.835Z,9.90
2023-12-11T12:07:40.635Z,10.23
2023-12-11T12:10:47.715Z,11.07
2023-12-11T12:13:50.791Z,10.98
2023-12-11T12:16:55.110Z,11.57
2023-12-11T12:20:00.202Z,12.30
2023-12-11T12:23:08.343Z,11.30
2023-12-11T12:26:11.385Z,10.90
2023-12-11T12:29:17.794Z,11.18
2023-12-11T12:32:40.899Z,11.82
2023-12-11T12:35:46.121Z,11.73
2023-12-11T12:38:51.536Z,12.35
2023-12-11T12:41:57.660Z,12.05
2023-12-11T12:45:01.771Z,12.63
2023-12-11T12:48:06.741Z,11.98
2023-12-11T12:51:16.146Z,13.02
2023-12-11T12:54:23.051Z,13.55
2023-12-11T12:57:37.830Z,13.35
2023-12-11T13:00:43.865Z,11.98
2023-12-11T13:03:49.595Z,12.07
2023-12-11T13:06:53.256Z,11.40
2023-12-11T13:10:19.202Z,16.58
2023-12-11T13:13:29.279Z,18.77
2023-12-11T13:16:33.172Z,20.17
2023-12-11T13:19:40.897Z,12.52
2023-12-11T13:22:43.878Z,12.55
2023-12-11T13:25:51.552Z,12.02
2023-12-11T13:28:55.911Z,13.57
2023-12-11T13:31:59.729Z,16.45
2023-12-11T13:35:05.849Z,16.00
2023-12-11T13:38:30.475Z,14.70
2023-12-11T13:41:38.497Z,16.55
2023-12-11T13:44:45.439Z,15.70
2023-12-11T13:48:32.364Z,16.15
2023-12-11T13:51:36.625Z,16.15
2023-12-11T13:55:19.424Z,13.35
2023-12-11T13:58:23.999Z,16.48
2023-12-11T14:01:33.310Z,12.80
2023-12-11T14:04:41.761Z,24.50
2023-12-11T14:08:19.073Z,17.08
2023-12-11T14:11:57.455Z,14.75
2023-12-11T14:15:02.334Z,17.48
2023-12-11T14:18:31.407Z,18.65
2023-12-11T14:21:36.687Z,18.83
2023-12-11T14:24:59.661Z,23.10
2023-12-11T14:28:06.506Z,20.30
2023-12-11T14:31:13.142Z,16.00
2023-12-11T14:34:42.878Z,15.88
2023-12-11T14:38:19.135Z,15.02
2023-12-11T14:41:47.798Z,14.68
2023-12-11T14:44:59.068Z,16.58
2023-12-11T14:48:05.005Z,16.67
2023-12-11T14:51:08.455Z,17.05
2023-12-11T14:54:12.797Z,17.35
2023-12-11T14:57:21.229Z,16.95
2023-12-11T15:00:47.604Z,16.98
2023-12-11T15:03:54.070Z,17.75
2023-12-11T15:07:18.240Z,18.27
2023-12-11T15:10:25.436Z,17.95
2023-12-11T15:13:32.999Z,18.12
2023-12-11T15:16:46.201Z,19.27
2023-12-11T15:20:27.980Z,18.92
2023-12-11T15:23:34.427Z,18.65
2023-12-11T15:27:06.806Z,18.75
2023-12-11T15:30:29.831Z,17.10
2023-12-11T15:33:33.087Z,18.17
2023-12-11T15:36:45.754Z,18.83
2023-12-11T15:39:51.809Z,21.20
2023-12-11T15:43:16.987Z,21.15
2023-12-11T15:46:21.151Z,19.58
2023-12-11T15:49:49.014Z,20.23
2023-12-11T15:52:58.677Z,39.05
2023-12-11T15:56:03.853Z,23.38
2023-12-11T16:00:06.735Z,25.50
2023-12-11T16:03:14.392Z,18.37
2023-12-11T16:10:28.032Z,18.25
2023-12-11T16:13:37.259Z,19.17
2023-12-11T16:16:43.809Z,18.70
2023-12-11T16:19:51.170Z,19.58
2023-12-11T16:22:54.859Z,18.25
2023-12-11T16:26:03.396Z,19.50
2023-12-11T16:29:36.014Z,20.10
2023-12-11T16:32:41.704Z,19.05
2023-12-11T16:35:45.043Z,18.62
2023-12-11T16:38:48.627Z,19.50
2023-12-11T16:41:53.152Z,18.23
2023-12-11T16:45:01.534Z,19.37
2023-12-11T16:48:37.720Z,18.75
2023-12-11T16:51:41.785Z,20.20
2023-12-11T16:54:44.875Z,19.30
2023-12-11T16:57:49.396Z,19.80
2023-12-11T17:00:52.160Z,20.73
2023-12-11T17:03:57.149Z,19.42
2023-12-11T17:07:02.555Z,20.60
2023-12-11T17:10:08.415Z,24.15
2023-12-11T17:13:12.206Z,20.62
2023-12-11T17:16:18.039Z,21.12
2023-12-11T17:19:21.660Z,22.30
2023-12-11T17:22:29.709Z,21.60
2023-12-11T17:25:34.775Z,20.40
2023-12-11T17:28:38.872Z,21.12
2023-12-11T17:31:43.672Z,21.37
2023-12-11T17:34:49.973Z,20.80
2023-12-11T17:37:52.677Z,21.92
2023-12-11T17:40:56.336Z,20.55
2023-12-11T17:44:00.051Z,22.35
2023-12-11T17:47:05.253Z,22.85
2023-12-11T17:50:15.676Z,21.52
2023-12-11T17:53:18.908Z,18.20
2023-12-11T17:56:24.466Z,22.37
2023-12-11T17:59:30.603Z,20.17
2023-12-11T18:02:36.651Z,22.73
2023-12-11T18:05:40.660Z,18.05
2023-12-11T18:08:48.683Z,17.12
2023-12-11T18:11:52.015Z,18.08
2023-12-11T18:14:55.122Z,18.05
2023-12-11T18:17:58.530Z,17.50
2023-12-11T18:21:05.763Z,17.50
2023-12-11T18:24:09.127Z,18.08
2023-12-11T18:27:35.946Z,17.67
2023-12-11T18:30:39.514Z,18.45
2023-12-11T18:33:45.801Z,18.00
2023-12-11T18:36:51.561Z,19.62
2023-12-11T18:39:56.717Z,20.73
2023-12-11T18:43:00.036Z,19.57
2023-12-11T18:46:03.624Z,18.90
2023-12-11T18:49:13.793Z,21.73
2023-12-11T18:52:46.871Z,19.23
2023-12-11T18:56:00.311Z,18.75
2023-12-11T18:59:03.617Z,18.08
2023-12-11T19:02:29.712Z,20.17
2023-12-11T19:05:55.472Z,19.23
2023-12-11T19:09:00.610Z,21.62
2023-12-11T19:12:05.614Z,21.87
2023-12-11T19:15:10.459Z,18.08
2023-12-11T19:18:18.967Z,25.52
2023-12-11T19:21:42.959Z,24.48
2023-12-11T19:24:46.177Z,23.20
2023-12-11T19:27:50.545Z,23.15
2023-12-11T19:30:53.576Z,29.27
2023-12-11T19:34:00.080Z,20.62
2023-12-11T19:37:05.745Z,22.52
2023-12-11T19:40:10.521Z,20.10
2023-12-11T19:43:16.751Z,22.15
2023-12-11T19:46:25.912Z,21.08
2023-12-11T19:49:33.440Z,21.17
2023-12-11T19:52:36.971Z,22.27
2023-12-11T19:55:41.465Z,22.62
2023-12-11T19:59:08.499Z,20.83
2023-12-11T20:02:12.151Z,22.42
2023-12-11T20:05:35.466Z,21.65
2023-12-11T20:08:40.955Z,23.40
2023-12-11T20:11:45.920Z,23.95
2023-12-11T20:15:27.001Z,26.83
2023-12-11T20:18:30.679Z,25.88
2023-12-11T20:21:33.207Z,25.42
2023-12-11T20:24:36.460Z,23.90
2023-12-11T20:27:41.337Z,23.90
2023-12-11T20:30:45.303Z,24.20
2023-12-11T20:36:55.691Z,23.60
2023-12-11T20:39:59.064Z,23.58
2023-12-11T20:43:24.935Z,24.52
2023-12-11T20:46:32.769Z,22.95
2023-12-11T20:49:43.826Z,33.28
2023-12-11T20:53:10.611Z,34.85
2023-12-11T20:56:24.982Z,30.48
2023-12-11T20:59:48.637Z,26.10
2023-12-11T21:02:54.075Z,26.02
2023-12-11T21:06:01.981Z,22.48
2023-12-11T21:09:18.255Z,24.30
2023-12-11T21:12:22.016Z,24.58
2023-12-11T21:15:47.423Z,24.02
2023-12-11T21:19:20.336Z,23.80
2023-12-11T21:22:31.083Z,23.73
2023-12-11T21:25:33.966Z,21.48
2023-12-11T21:28:37.761Z,22.55
2023-12-11T21:31:43.354Z,21.85
2023-12-11T21:34:49.337Z,20.60
2023-12-11T21:37:57.145Z,19.92
2023-12-11T21:41:00.360Z,20.55
2023-12-11T21:44:04.898Z,20.42
2023-12-11T21:47:09.762Z,21.62
2023-12-11T21:50:33.735Z,20.42
2023-12-11T21:53:37.265Z,21.15
2023-12-11T21:56:42.494Z,22.83
2023-12-11T21:59:48.424Z,22.40
2023-12-11T22:03:00.978Z,22.13
2023-12-11T22:06:05.335Z,21.67
2023-12-11T22:09:24.686Z,21.37
2023-12-11T22:12:27.818Z,20.85
2023-12-11T22:15:33.711Z,21.73
2023-12-11T22:18:39.433Z,19.65
2023-12-11T22:21:42.180Z,20.40
2023-12-11T22:24:48.043Z,19.62
2023-12-11T22:27:57.318Z,19.98
2023-12-11T22:31:05.473Z,19.20
2023-12-11T22:34:12.015Z,21.52
2023-12-11T22:37:17.417Z,20.85
2023-12-11T22:40:22.334Z,20.65
2023-12-11T22:43:28.887Z,20.83
2023-12-11T22:46:34.836Z,21.15
2023-12-11T22:49:38.476Z,20.42
2023-12-11T22:52:44.167Z,21.10
2023-12-11T22:55:51.348Z,22.20
2023-12-11T22:58:54.156Z,21.15
2023-12-11T23:02:04.631Z,22.02
2023-12-11T23:05:31.746Z,21.58
2023-12-11T23:08:35.819Z,21.42
2023-12-11T23:11:39.043Z,21.33
2023-12-11T23:14:42.228Z,21.23
2023-12-11T23:17:48.465Z,20.80
2023-12-11T23:20:58.313Z,22.35
2023-12-11T23:24:06.500Z,22.15
2023-12-11T23:27:12.995Z,23.08
2023-12-11T23:30:19.382Z,23.20
2023-12-11T23:33:22.712Z,23.15
2023-12-11T23:36:28.476Z,26.27
2023-12-11T23:40:00.706Z,24.85
2023-12-11T23:43:03.346Z,23.83
2023-12-11T23:46:30.547Z,22.30
2023-12-11T23:49:53.668Z,22.30
2023-12-11T23:52:59.218Z,21.87
2023-12-11T23:56:02.577Z,22.37
2023-12-11T23:59:10.143Z,22.33
